sensor_id;sensor_type;location;lat;lon;timestamp;pressure;altitude;pressure_sealevel;temperature;humidity
70407;BME280;57821;52.202;0.154;2023-12-20T00:01:52;101970.94;;;5.96;100.00
70407;BME280;57821;52.202;0.154;2023-12-20T00:04:19;101973.50;;;5.96;100.00
70407;BME280;57821;52.202;0.154;2023-12-20T00:06:46;101976.22;;;5.99;100.00
70407;BME280;57821;52.202;0.154;2023-12-20T00:09:13;101973.19;;;5.87;100.00
70407;BME280;57821;52.202;0.154;2023-12-20T00:11:42;101912.91;;;5.56;100.00
70407;BME280;57821;52.202;0.154;2023-12-20T00:14:11;101974.72;;;6.05;100.00
70407;BME280;57821;52.202;0.154;2023-12-20T00:16:46;101973.84;;;6.05;100.00
70407;BME280;57821;52.202;0.154;2023-12-20T00:19:13;101957.19;;;5.95;100.00
70407;BME280;57821;52.202;0.154;2023-12-20T00:21:40;101970.84;;;5.93;100.00
70407;BME280;57821;52.202;0.154;2023-12-20T00:24:07;101919.31;;;5.67;100.00
70407;BME280;57821;52.202;0.154;2023-12-20T00:26:36;101984.63;;;5.95;100.00
70407;BME280;57821;52.202;0.154;2023-12-20T00:29:03;101965.44;;;5.87;100.00
70407;BME280;57821;52.202;0.154;2023-12-20T00:31:37;101962.09;;;5.88;100.00
70407;BME280;57821;52.202;0.154;2023-12-20T00:34:07;101955.16;;;5.87;100.00
70407;BME280;57821;52.202;0.154;2023-12-20T00:36:34;101967.44;;;5.94;100.00
70407;BME280;57821;52.202;0.154;2023-12-20T00:39:01;101916.63;;;5.64;100.00
70407;BME280;57821;52.202;0.154;2023-12-20T00:41:32;101951.81;;;5.89;100.00
70407;BME280;57821;52.202;0.154;2023-12-20T00:44:01;101962.19;;;5.91;100.00
70407;BME280;57821;52.202;0.154;2023-12-20T00:46:28;101981.66;;;6.08;100.00
70407;BME280;57821;52.202;0.154;2023-12-20T00:48:55;101968.34;;;5.96;100.00
70407;BME280;57821;52.202;0.154;2023-12-20T00:51:42;101985.09;;;6.08;100.00
70407;BME280;57821;52.202;0.154;2023-12-20T00:54:40;101909.75;;;5.63;100.00
70407;BME280;57821;52.202;0.154;2023-12-20T00:58:13;101929.97;;;5.78;100.00
70407;BME280;57821;52.202;0.154;2023-12-20T01:00:42;101957.25;;;5.97;100.00
70407;BME280;57821;52.202;0.154;2023-12-20T01:03:12;101903.19;;;5.73;100.00
70407;BME280;57821;52.202;0.154;2023-12-20T01:05:42;101956.56;;;6.02;100.00
70407;BME280;57821;52.202;0.154;2023-12-20T01:08:09;101945.19;;;5.96;100.00
70407;BME280;57821;52.202;0.154;2023-12-20T01:10:38;101932.09;;;5.88;100.00
70407;BME280;57821;52.202;0.154;2023-12-20T01:13:05;101921.94;;;5.93;100.00
70407;BME280;57821;52.202;0.154;2023-12-20T01:15:32;101873.50;;;5.57;100.00
70407;BME280;57821;52.202;0.154;2023-12-20T01:18:00;101920.13;;;5.90;100.00
70407;BME280;57821;52.202;0.154;2023-12-20T01:20:26;101939.28;;;5.98;100.00
70407;BME280;57821;52.202;0.154;2023-12-20T01:22:53;101919.72;;;5.79;100.00
70407;BME280;57821;52.202;0.154;2023-12-20T01:25:20;101905.91;;;5.77;100.00
70407;BME280;57821;52.202;0.154;2023-12-20T01:27:47;101882.25;;;5.62;100.00
70407;BME280;57821;52.202;0.154;2023-12-20T01:30:14;101929.53;;;5.90;100.00
70407;BME280;57821;52.202;0.154;2023-12-20T01:32:41;101931.06;;;5.85;100.00
70407;BME280;57821;52.202;0.154;2023-12-20T01:35:13;101909.16;;;5.72;100.00
70407;BME280;57821;52.202;0.154;2023-12-20T01:37:42;101944.97;;;5.90;100.00
70407;BME280;57821;52.202;0.154;2023-12-20T01:40:11;101894.97;;;5.58;100.00
70407;BME280;57821;52.202;0.154;2023-12-20T01:42:41;101864.44;;;5.43;100.00
70407;BME280;57821;52.202;0.154;2023-12-20T01:45:08;101911.72;;;5.72;100.00
70407;BME280;57821;52.202;0.154;2023-12-20T01:47:36;101897.56;;;5.59;100.00
70407;BME280;57821;52.202;0.154;2023-12-20T01:50:08;101944.09;;;5.89;100.00
70407;BME280;57821;52.202;0.154;2023-12-20T01:52:35;101905.28;;;5.59;100.00
70407;BME280;57821;52.202;0.154;2023-12-20T01:55:04;101944.06;;;5.88;100.00
70407;BME280;57821;52.202;0.154;2023-12-20T01:57:41;101950.00;;;5.87;100.00
70407;BME280;57821;52.202;0.154;2023-12-20T02:00:10;101945.69;;;5.86;100.00
70407;BME280;57821;52.202;0.154;2023-12-20T02:02:41;101904.97;;;5.50;100.00
70407;BME280;57821;52.202;0.154;2023-12-20T02:05:15;101923.50;;;5.65;100.00
70407;BME280;57821;52.202;0.154;2023-12-20T02:07:43;101942.69;;;5.73;100.00
70407;BME280;57821;52.202;0.154;2023-12-20T02:10:10;101946.94;;;5.73;100.00
70407;BME280;57821;52.202;0.154;2023-12-20T02:12:41;101933.59;;;5.59;100.00
70407;BME280;57821;52.202;0.154;2023-12-20T02:15:08;101946.06;;;5.72;100.00
70407;BME280;57821;52.202;0.154;2023-12-20T02:17:36;101888.84;;;5.30;100.00
70407;BME280;57821;52.202;0.154;2023-12-20T02:20:05;101970.38;;;5.81;100.00
70407;BME280;57821;52.202;0.154;2023-12-20T02:22:33;101958.13;;;5.73;100.00
70407;BME280;57821;52.202;0.154;2023-12-20T02:25:03;101947.59;;;5.67;100.00
70407;BME280;57821;52.202;0.154;2023-12-20T02:27:30;101925.94;;;5.61;100.00
70407;BME280;57821;52.202;0.154;2023-12-20T02:29:57;101953.91;;;5.75;100.00
70407;BME280;57821;52.202;0.154;2023-12-20T02:32:25;101973.28;;;5.88;100.00
70407;BME280;57821;52.202;0.154;2023-12-20T02:34:53;101927.75;;;5.63;100.00
70407;BME280;57821;52.202;0.154;2023-12-20T02:37:21;101945.56;;;5.83;100.00
70407;BME280;57821;52.202;0.154;2023-12-20T02:39:48;101935.91;;;5.75;100.00
70407;BME280;57821;52.202;0.154;2023-12-20T02:42:16;101866.19;;;5.44;100.00
70407;BME280;57821;52.202;0.154;2023-12-20T02:44:56;101931.84;;;5.82;100.00
70407;BME280;57821;52.202;0.154;2023-12-20T02:47:44;101930.41;;;5.90;100.00
70407;BME280;57821;52.202;0.154;2023-12-20T02:50:11;101929.50;;;5.88;100.00
70407;BME280;57821;52.202;0.154;2023-12-20T02:55:51;101935.22;;;6.05;100.00
70407;BME280;57821;52.202;0.154;2023-12-20T02:58:27;101933.56;;;6.07;100.00
70407;BME280;57821;52.202;0.154;2023-12-20T03:00:54;101869.75;;;5.73;100.00
70407;BME280;57821;52.202;0.154;2023-12-20T03:03:24;101902.44;;;6.01;100.00
70407;BME280;57821;52.202;0.154;2023-12-20T03:05:52;101889.38;;;5.95;100.00
70407;BME280;57821;52.202;0.154;2023-12-20T03:08:19;101885.06;;;5.94;100.00
70407;BME280;57821;52.202;0.154;2023-12-20T03:10:46;101857.22;;;5.84;100.00
70407;BME280;57821;52.202;0.154;2023-12-20T03:13:16;101877.16;;;5.88;100.00
70407;BME280;57821;52.202;0.154;2023-12-20T03:15:43;101906.16;;;6.09;100.00
70407;BME280;57821;52.202;0.154;2023-12-20T03:18:10;101817.47;;;5.74;100.00
70407;BME280;57821;52.202;0.154;2023-12-20T03:20:39;101820.56;;;5.64;100.00
70407;BME280;57821;52.202;0.154;2023-12-20T03:23:24;101916.06;;;6.24;100.00
70407;BME280;57821;52.202;0.154;2023-12-20T03:26:17;101907.31;;;6.18;100.00
70407;BME280;57821;52.202;0.154;2023-12-20T03:28:48;101874.78;;;5.94;100.00
70407;BME280;57821;52.202;0.154;2023-12-20T03:31:15;101893.38;;;6.12;100.00
70407;BME280;57821;52.202;0.154;2023-12-20T03:33:42;101883.91;;;6.11;100.00
70407;BME280;57821;52.202;0.154;2023-12-20T03:36:09;101881.03;;;6.02;100.00
70407;BME280;57821;52.202;0.154;2023-12-20T03:38:36;101895.38;;;6.21;100.00
70407;BME280;57821;52.202;0.154;2023-12-20T03:41:04;101891.00;;;6.18;100.00
70407;BME280;57821;52.202;0.154;2023-12-20T03:43:31;101854.47;;;6.03;100.00
70407;BME280;57821;52.202;0.154;2023-12-20T03:45:58;101828.31;;;5.91;100.00
70407;BME280;57821;52.202;0.154;2023-12-20T03:48:27;101871.28;;;6.18;100.00
70407;BME280;57821;52.202;0.154;2023-12-20T03:50:53;101882.94;;;6.34;100.00
70407;BME280;57821;52.202;0.154;2023-12-20T03:53:20;101889.81;;;6.35;100.00
70407;BME280;57821;52.202;0.154;2023-12-20T03:55:47;101816.63;;;6.00;100.00
70407;BME280;57821;52.202;0.154;2023-12-20T03:58:15;101837.78;;;6.17;100.00
70407;BME280;57821;52.202;0.154;2023-12-20T04:00:42;101851.53;;;6.19;100.00
70407;BME280;57821;52.202;0.154;2023-12-20T04:03:11;101871.59;;;6.29;100.00
70407;BME280;57821;52.202;0.154;2023-12-20T04:05:44;101812.25;;;5.98;100.00
70407;BME280;57821;52.202;0.154;2023-12-20T04:08:11;101815.41;;;5.89;100.00
70407;BME280;57821;52.202;0.154;2023-12-20T04:10:38;101849.47;;;6.07;100.00
70407;BME280;57821;52.202;0.154;2023-12-20T04:13:05;101859.81;;;6.09;100.00
70407;BME280;57821;52.202;0.154;2023-12-20T04:15:32;101865.25;;;6.18;100.00
70407;BME280;57821;52.202;0.154;2023-12-20T04:18:00;101865.91;;;6.12;100.00
70407;BME280;57821;52.202;0.154;2023-12-20T04:20:27;101840.78;;;6.04;100.00
70407;BME280;57821;52.202;0.154;2023-12-20T04:22:57;101863.31;;;6.11;100.00
70407;BME280;57821;52.202;0.154;2023-12-20T04:25:26;101769.25;;;5.68;100.00
70407;BME280;57821;52.202;0.154;2023-12-20T04:27:53;101819.66;;;5.87;100.00
70407;BME280;57821;52.202;0.154;2023-12-20T04:30:20;101874.72;;;6.19;100.00
70407;BME280;57821;52.202;0.154;2023-12-20T04:32:49;101869.44;;;6.14;100.00
70407;BME280;57821;52.202;0.154;2023-12-20T04:35:36;101882.44;;;6.19;100.00
70407;BME280;57821;52.202;0.154;2023-12-20T04:38:32;101845.91;;;6.04;100.00
70407;BME280;57821;52.202;0.154;2023-12-20T04:41:01;101857.03;;;6.03;100.00
70407;BME280;57821;52.202;0.154;2023-12-20T04:43:28;101863.53;;;6.17;100.00
70407;BME280;57821;52.202;0.154;2023-12-20T04:45:56;101858.38;;;6.17;100.00
70407;BME280;57821;52.202;0.154;2023-12-20T04:48:23;101831.50;;;6.09;100.00
70407;BME280;57821;52.202;0.154;2023-12-20T04:50:51;101858.56;;;6.23;100.00
70407;BME280;57821;52.202;0.154;2023-12-20T04:53:18;101859.47;;;6.25;100.00
70407;BME280;57821;52.202;0.154;2023-12-20T04:56:44;101794.13;;;5.95;100.00
70407;BME280;57821;52.202;0.154;2023-12-20T04:59:41;101847.75;;;6.35;100.00
70407;BME280;57821;52.202;0.154;2023-12-20T05:02:08;101852.03;;;6.34;100.00
70407;BME280;57821;52.202;0.154;2023-12-20T05:04:35;101834.72;;;6.30;100.00
70407;BME280;57821;52.202;0.154;2023-12-20T05:07:02;101844.63;;;6.45;100.00
70407;BME280;57821;52.202;0.154;2023-12-20T05:09:32;101843.00;;;6.48;100.00
70407;BME280;57821;52.202;0.154;2023-12-20T05:12:03;101849.34;;;6.59;100.00
70407;BME280;57821;52.202;0.154;2023-12-20T05:14:32;101849.66;;;6.69;100.00
70407;BME280;57821;52.202;0.154;2023-12-20T05:17:12;101840.97;;;6.67;100.00
70407;BME280;57821;52.202;0.154;2023-12-20T05:20:03;101820.19;;;6.60;100.00
70407;BME280;57821;52.202;0.154;2023-12-20T05:22:35;101809.19;;;6.66;100.00
70407;BME280;57821;52.202;0.154;2023-12-20T05:25:05;101811.09;;;6.73;100.00
70407;BME280;57821;52.202;0.154;2023-12-20T05:27:34;101752.72;;;6.44;100.00
70407;BME280;57821;52.202;0.154;2023-12-20T05:30:44;101829.72;;;6.93;100.00
70407;BME280;57821;52.202;0.154;2023-12-20T05:33:11;101801.03;;;6.81;100.00
70407;BME280;57821;52.202;0.154;2023-12-20T05:35:40;101790.72;;;6.82;100.00
70407;BME280;57821;52.202;0.154;2023-12-20T05:38:07;101784.53;;;6.76;100.00
70407;BME280;57821;52.202;0.154;2023-12-20T05:40:34;101782.88;;;6.78;100.00
70407;BME280;57821;52.202;0.154;2023-12-20T05:43:13;101760.50;;;6.77;100.00
70407;BME280;57821;52.202;0.154;2023-12-20T05:45:39;101772.75;;;6.84;100.00
70407;BME280;57821;52.202;0.154;2023-12-20T05:48:09;101777.78;;;6.79;100.00
70407;BME280;57821;52.202;0.154;2023-12-20T05:51:00;101773.53;;;6.81;100.00
70407;BME280;57821;52.202;0.154;2023-12-20T05:53:27;101775.53;;;6.91;100.00
70407;BME280;57821;52.202;0.154;2023-12-20T05:55:55;101791.78;;;6.89;100.00
70407;BME280;57821;52.202;0.154;2023-12-20T05:58:22;101828.66;;;7.16;100.00
70407;BME280;57821;52.202;0.154;2023-12-20T06:00:49;101842.50;;;7.20;100.00
70407;BME280;57821;52.202;0.154;2023-12-20T06:03:16;101831.25;;;7.18;100.00
70407;BME280;57821;52.202;0.154;2023-12-20T06:05:45;101793.78;;;6.99;100.00
70407;BME280;57821;52.202;0.154;2023-12-20T06:08:19;101830.31;;;7.14;100.00
70407;BME280;57821;52.202;0.154;2023-12-20T06:10:46;101802.69;;;7.10;100.00
70407;BME280;57821;52.202;0.154;2023-12-20T06:13:16;101783.44;;;6.97;100.00
70407;BME280;57821;52.202;0.154;2023-12-20T06:15:43;101827.97;;;7.23;100.00
70407;BME280;57821;52.202;0.154;2023-12-20T06:18:15;101806.00;;;7.06;100.00
70407;BME280;57821;52.202;0.154;2023-12-20T06:20:48;101805.22;;;7.09;100.00
70407;BME280;57821;52.202;0.154;2023-12-20T06:23:15;101817.66;;;7.23;100.00
70407;BME280;57821;52.202;0.154;2023-12-20T06:25:44;101789.66;;;7.06;100.00
70407;BME280;57821;52.202;0.154;2023-12-20T06:28:11;101823.78;;;7.27;100.00
70407;BME280;57821;52.202;0.154;2023-12-20T06:30:43;101854.31;;;7.43;100.00
70407;BME280;57821;52.202;0.154;2023-12-20T06:33:10;101846.63;;;7.45;100.00
70407;BME280;57821;52.202;0.154;2023-12-20T06:35:38;101825.56;;;7.29;100.00
70407;BME280;57821;52.202;0.154;2023-12-20T06:38:05;101828.41;;;7.40;100.00
70407;BME280;57821;52.202;0.154;2023-12-20T06:40:39;101832.84;;;7.46;100.00
70407;BME280;57821;52.202;0.154;2023-12-20T06:43:06;101797.00;;;7.22;100.00
70407;BME280;57821;52.202;0.154;2023-12-20T06:45:46;101828.50;;;7.43;100.00
70407;BME280;57821;52.202;0.154;2023-12-20T06:48:15;101796.13;;;7.23;100.00
70407;BME280;57821;52.202;0.154;2023-12-20T06:50:46;101802.31;;;7.28;100.00
70407;BME280;57821;52.202;0.154;2023-12-20T06:53:13;101815.50;;;7.40;100.00
70407;BME280;57821;52.202;0.154;2023-12-20T06:59:31;101786.63;;;7.20;100.00
70407;BME280;57821;52.202;0.154;2023-12-20T07:02:00;101814.69;;;7.41;100.00
70407;BME280;57821;52.202;0.154;2023-12-20T07:04:29;101829.44;;;7.45;100.00
70407;BME280;57821;52.202;0.154;2023-12-20T07:06:56;101792.00;;;7.28;100.00
70407;BME280;57821;52.202;0.154;2023-12-20T07:09:26;101807.59;;;7.34;100.00
70407;BME280;57821;52.202;0.154;2023-12-20T07:11:56;101778.88;;;7.20;100.00
70407;BME280;57821;52.202;0.154;2023-12-20T07:14:25;101820.00;;;7.47;100.00
70407;BME280;57821;52.202;0.154;2023-12-20T07:16:56;101825.09;;;7.44;100.00
70407;BME280;57821;52.202;0.154;2023-12-20T07:19:23;101795.41;;;7.27;100.00
70407;BME280;57821;52.202;0.154;2023-12-20T07:21:50;101797.84;;;7.22;100.00
70407;BME280;57821;52.202;0.154;2023-12-20T07:24:17;101789.03;;;7.14;100.00
70407;BME280;57821;52.202;0.154;2023-12-20T07:26:44;101770.63;;;7.00;100.00
70407;BME280;57821;52.202;0.154;2023-12-20T07:29:11;101794.97;;;7.12;100.00
70407;BME280;57821;52.202;0.154;2023-12-20T07:31:47;101800.03;;;7.07;100.00
70407;BME280;57821;52.202;0.154;2023-12-20T07:34:15;101759.03;;;6.85;100.00
70407;BME280;57821;52.202;0.154;2023-12-20T07:36:42;101796.28;;;6.96;100.00
70407;BME280;57821;52.202;0.154;2023-12-20T07:39:08;101824.88;;;7.05;100.00
70407;BME280;57821;52.202;0.154;2023-12-20T07:41:44;101807.53;;;6.98;100.00
70407;BME280;57821;52.202;0.154;2023-12-20T07:44:49;101777.66;;;6.75;100.00
70407;BME280;57821;52.202;0.154;2023-12-20T07:47:17;101802.09;;;6.89;100.00
70407;BME280;57821;52.202;0.154;2023-12-20T07:49:49;101787.22;;;6.79;100.00
70407;BME280;57821;52.202;0.154;2023-12-20T07:52:18;101787.03;;;6.73;100.00
70407;BME280;57821;52.202;0.154;2023-12-20T07:54:45;101813.16;;;6.85;100.00
70407;BME280;57821;52.202;0.154;2023-12-20T07:57:12;101829.88;;;6.99;100.00
70407;BME280;57821;52.202;0.154;2023-12-20T07:59:39;101831.50;;;6.95;100.00
70407;BME280;57821;52.202;0.154;2023-12-20T08:02:06;101811.22;;;6.78;100.00
70407;BME280;57821;52.202;0.154;2023-12-20T08:04:33;101834.72;;;6.88;100.00
70407;BME280;57821;52.202;0.154;2023-12-20T08:07:00;101833.22;;;6.95;100.00
70407;BME280;57821;52.202;0.154;2023-12-20T08:09:27;101805.94;;;6.73;100.00
70407;BME280;57821;52.202;0.154;2023-12-20T08:11:55;101818.22;;;6.82;100.00
70407;BME280;57821;52.202;0.154;2023-12-20T08:14:22;101824.28;;;6.84;100.00
70407;BME280;57821;52.202;0.154;2023-12-20T08:16:50;101831.38;;;6.91;100.00
70407;BME280;57821;52.202;0.154;2023-12-20T08:19:17;101788.38;;;6.60;100.00
70407;BME280;57821;52.202;0.154;2023-12-20T08:21:44;101811.88;;;6.71;100.00
70407;BME280;57821;52.202;0.154;2023-12-20T08:24:11;101843.44;;;6.92;100.00
70407;BME280;57821;52.202;0.154;2023-12-20T08:26:38;101791.38;;;6.74;100.00
70407;BME280;57821;52.202;0.154;2023-12-20T08:29:05;101793.84;;;6.71;100.00
70407;BME280;57821;52.202;0.154;2023-12-20T08:31:31;101810.66;;;6.88;100.00
70407;BME280;57821;52.202;0.154;2023-12-20T08:33:58;101814.25;;;6.93;100.00
70407;BME280;57821;52.202;0.154;2023-12-20T08:36:25;101839.28;;;6.97;100.00
70407;BME280;57821;52.202;0.154;2023-12-20T08:38:52;101856.88;;;7.12;100.00
70407;BME280;57821;52.202;0.154;2023-12-20T08:41:19;101828.94;;;6.95;100.00
70407;BME280;57821;52.202;0.154;2023-12-20T08:43:47;101847.28;;;7.06;100.00
70407;BME280;57821;52.202;0.154;2023-12-20T08:46:14;101859.63;;;7.16;100.00
70407;BME280;57821;52.202;0.154;2023-12-20T08:48:42;101842.38;;;7.15;100.00
70407;BME280;57821;52.202;0.154;2023-12-20T08:51:10;101844.19;;;7.19;100.00
70407;BME280;57821;52.202;0.154;2023-12-20T08:53:37;101835.69;;;7.22;100.00
70407;BME280;57821;52.202;0.154;2023-12-20T08:56:43;101839.44;;;7.33;100.00
70407;BME280;57821;52.202;0.154;2023-12-20T08:59:16;101788.13;;;7.12;100.00
70407;BME280;57821;52.202;0.154;2023-12-20T09:01:43;101770.00;;;7.09;100.00
70407;BME280;57821;52.202;0.154;2023-12-20T09:04:10;101811.91;;;7.33;100.00
70407;BME280;57821;52.202;0.154;2023-12-20T09:06:37;101805.00;;;7.32;100.00
70407;BME280;57821;52.202;0.154;2023-12-20T09:09:04;101776.38;;;7.23;100.00
70407;BME280;57821;52.202;0.154;2023-12-20T09:11:33;101752.00;;;7.12;100.00
70407;BME280;57821;52.202;0.154;2023-12-20T09:14:09;101792.38;;;7.43;100.00
70407;BME280;57821;52.202;0.154;2023-12-20T09:16:36;101809.94;;;7.58;100.00
70407;BME280;57821;52.202;0.154;2023-12-20T09:19:03;101799.59;;;7.56;100.00
70407;BME280;57821;52.202;0.154;2023-12-20T09:21:30;101804.19;;;7.68;100.00
70407;BME280;57821;52.202;0.154;2023-12-20T09:23:57;101781.66;;;7.61;100.00
70407;BME280;57821;52.202;0.154;2023-12-20T09:26:26;101781.75;;;7.65;100.00
70407;BME280;57821;52.202;0.154;2023-12-20T09:28:53;101814.63;;;8.08;100.00
70407;BME280;57821;52.202;0.154;2023-12-20T09:31:20;101818.44;;;8.24;100.00
70407;BME280;57821;52.202;0.154;2023-12-20T09:33:55;101777.03;;;8.21;100.00
70407;BME280;57821;52.202;0.154;2023-12-20T09:36:28;101798.88;;;8.34;100.00
70407;BME280;57821;52.202;0.154;2023-12-20T09:38:55;101835.81;;;8.69;100.00
70407;BME280;57821;52.202;0.154;2023-12-20T09:41:28;101762.06;;;8.45;100.00
70407;BME280;57821;52.202;0.154;2023-12-20T09:44:13;101807.56;;;8.78;100.00
70407;BME280;57821;52.202;0.154;2023-12-20T09:47:19;101779.53;;;8.55;100.00
70407;BME280;57821;52.202;0.154;2023-12-20T09:49:50;101786.69;;;8.69;99.64
70407;BME280;57821;52.202;0.154;2023-12-20T09:52:19;101826.84;;;8.93;99.79
70407;BME280;57821;52.202;0.154;2023-12-20T09:54:49;101768.69;;;8.73;97.97
70407;BME280;57821;52.202;0.154;2023-12-20T09:57:52;101777.41;;;8.78;98.19
70407;BME280;57821;52.202;0.154;2023-12-20T10:00:22;101836.66;;;9.10;98.56
70407;BME280;57821;52.202;0.154;2023-12-20T10:05:28;101816.81;;;9.10;96.23
70407;BME280;57821;52.202;0.154;2023-12-20T10:07:59;101784.50;;;8.88;97.65
70407;BME280;57821;52.202;0.154;2023-12-20T10:10:28;101828.97;;;9.13;96.19
70407;BME280;57821;52.202;0.154;2023-12-20T10:13:13;101844.47;;;9.13;97.03
70407;BME280;57821;52.202;0.154;2023-12-20T10:15:43;101801.81;;;8.92;95.94
70407;BME280;57821;52.202;0.154;2023-12-20T10:18:12;101766.88;;;8.69;97.62
70407;BME280;57821;52.202;0.154;2023-12-20T10:20:40;101804.47;;;8.97;96.33
70407;BME280;57821;52.202;0.154;2023-12-20T10:23:10;101767.03;;;8.77;96.45
70407;BME280;57821;52.202;0.154;2023-12-20T10:25:39;101793.19;;;8.90;96.09
70407;BME280;57821;52.202;0.154;2023-12-20T10:28:16;101829.78;;;9.12;96.41
70407;BME280;57821;52.202;0.154;2023-12-20T10:31:28;101758.31;;;8.72;97.35
70407;BME280;57821;52.202;0.154;2023-12-20T10:33:59;101808.84;;;8.99;95.87
70407;BME280;57821;52.202;0.154;2023-12-20T10:36:31;101809.00;;;9.07;94.89
70407;BME280;57821;52.202;0.154;2023-12-20T10:39:00;101785.28;;;8.84;95.43
70407;BME280;57821;52.202;0.154;2023-12-20T10:41:31;101766.28;;;8.82;95.98
70407;BME280;57821;52.202;0.154;2023-12-20T10:44:01;101792.75;;;9.13;96.02
70407;BME280;57821;52.202;0.154;2023-12-20T10:46:34;101791.81;;;9.11;96.40
70407;BME280;57821;52.202;0.154;2023-12-20T10:49:02;101806.56;;;9.15;95.91
70407;BME280;57821;52.202;0.154;2023-12-20T10:51:55;101759.44;;;8.84;96.39
70407;BME280;57821;52.202;0.154;2023-12-20T10:55:55;101721.91;;;8.61;96.53
70407;BME280;57821;52.202;0.154;2023-12-20T10:59:02;101797.94;;;9.14;97.35
70407;BME280;57821;52.202;0.154;2023-12-20T11:01:34;101790.19;;;9.16;97.03
70407;BME280;57821;52.202;0.154;2023-12-20T11:04:09;101760.72;;;9.07;96.26
70407;BME280;57821;52.202;0.154;2023-12-20T11:06:51;101756.44;;;9.08;96.59
70407;BME280;57821;52.202;0.154;2023-12-20T11:09:24;101748.63;;;9.06;96.56
70407;BME280;57821;52.202;0.154;2023-12-20T11:12:26;101753.16;;;9.18;97.43
70407;BME280;57821;52.202;0.154;2023-12-20T11:14:58;101703.59;;;8.95;96.50
70407;BME280;57821;52.202;0.154;2023-12-20T11:17:31;101712.38;;;9.05;95.81
70407;BME280;57821;52.202;0.154;2023-12-20T11:20:04;101731.63;;;9.21;96.74
70407;BME280;57821;52.202;0.154;2023-12-20T11:22:33;101674.31;;;8.96;96.05
70407;BME280;57821;52.202;0.154;2023-12-20T11:25:08;101712.84;;;9.31;96.41
70407;BME280;57821;52.202;0.154;2023-12-20T11:28:29;101712.03;;;9.35;98.12
70407;BME280;57821;52.202;0.154;2023-12-20T11:30:51;101706.13;;;9.42;95.61
70407;BME280;57821;52.202;0.154;2023-12-20T11:33:23;101702.78;;;9.49;96.44
70407;BME280;57821;52.202;0.154;2023-12-20T11:35:56;101703.75;;;9.57;95.75
70407;BME280;57821;52.202;0.154;2023-12-20T11:38:23;101703.00;;;9.64;96.22
70407;BME280;57821;52.202;0.154;2023-12-20T11:40:50;101684.97;;;9.70;95.52
70407;BME280;57821;52.202;0.154;2023-12-20T11:43:35;101669.38;;;9.66;96.40
70407;BME280;57821;52.202;0.154;2023-12-20T11:46:08;101657.31;;;9.66;95.68
70407;BME280;57821;52.202;0.154;2023-12-20T11:48:39;101614.00;;;9.55;95.63
70407;BME280;57821;52.202;0.154;2023-12-20T11:51:10;101667.13;;;9.88;94.02
70407;BME280;57821;52.202;0.154;2023-12-20T11:53:39;101632.44;;;9.77;95.33
70407;BME280;57821;52.202;0.154;2023-12-20T11:56:09;101614.13;;;9.65;95.36
70407;BME280;57821;52.202;0.154;2023-12-20T11:58:36;101660.28;;;9.95;94.67
70407;BME280;57821;52.202;0.154;2023-12-20T12:01:04;101656.84;;;9.98;93.95
70407;BME280;57821;52.202;0.154;2023-12-20T12:03:34;101637.69;;;9.83;93.69
70407;BME280;57821;52.202;0.154;2023-12-20T12:06:01;101610.00;;;9.78;92.87
70407;BME280;57821;52.202;0.154;2023-12-20T12:08:31;101620.44;;;9.85;93.53
70407;BME280;57821;52.202;0.154;2023-12-20T12:10:58;101625.75;;;9.98;93.87
70407;BME280;57821;52.202;0.154;2023-12-20T12:13:25;101618.91;;;10.00;94.44
70407;BME280;57821;52.202;0.154;2023-12-20T12:15:54;101623.31;;;10.08;93.30
70407;BME280;57821;52.202;0.154;2023-12-20T12:18:21;101625.91;;;10.07;93.54
70407;BME280;57821;52.202;0.154;2023-12-20T12:20:48;101611.16;;;10.04;93.18
70407;BME280;57821;52.202;0.154;2023-12-20T12:23:22;101595.56;;;9.98;92.77
70407;BME280;57821;52.202;0.154;2023-12-20T12:25:50;101598.28;;;10.07;92.13
70407;BME280;57821;52.202;0.154;2023-12-20T12:28:17;101608.69;;;10.15;92.08
70407;BME280;57821;52.202;0.154;2023-12-20T12:30:56;101588.75;;;10.06;93.10
70407;BME280;57821;52.202;0.154;2023-12-20T12:33:25;101606.16;;;10.16;91.95
70407;BME280;57821;52.202;0.154;2023-12-20T12:35:53;101568.88;;;10.05;91.85
70407;BME280;57821;52.202;0.154;2023-12-20T12:38:21;101595.81;;;10.19;91.41
70407;BME280;57821;52.202;0.154;2023-12-20T12:40:50;101561.91;;;10.03;91.56
70407;BME280;57821;52.202;0.154;2023-12-20T12:43:17;101585.50;;;10.22;91.13
70407;BME280;57821;52.202;0.154;2023-12-20T12:45:44;101561.13;;;10.08;90.68
70407;BME280;57821;52.202;0.154;2023-12-20T12:48:12;101547.22;;;10.00;91.35
70407;BME280;57821;52.202;0.154;2023-12-20T12:50:42;101513.38;;;9.83;91.40
70407;BME280;57821;52.202;0.154;2023-12-20T12:53:12;101575.94;;;10.17;90.29
70407;BME280;57821;52.202;0.154;2023-12-20T12:56:09;101586.41;;;10.24;91.92
70407;BME280;57821;52.202;0.154;2023-12-20T12:59:07;101558.72;;;10.22;91.42
70407;BME280;57821;52.202;0.154;2023-12-20T13:01:36;101543.19;;;10.25;90.80
70407;BME280;57821;52.202;0.154;2023-12-20T13:04:13;101531.16;;;10.30;89.95
70407;BME280;57821;52.202;0.154;2023-12-20T13:06:40;101521.66;;;10.31;90.32
70407;BME280;57821;52.202;0.154;2023-12-20T13:09:10;101497.34;;;10.19;89.86
70407;BME280;57821;52.202;0.154;2023-12-20T13:11:37;101532.09;;;10.38;90.19
70407;BME280;57821;52.202;0.154;2023-12-20T13:14:04;101524.41;;;10.50;90.58
70407;BME280;57821;52.202;0.154;2023-12-20T13:16:32;101513.13;;;10.44;90.41
70407;BME280;57821;52.202;0.154;2023-12-20T13:19:01;101493.25;;;10.44;90.55
70407;BME280;57821;52.202;0.154;2023-12-20T13:21:28;101470.72;;;10.37;90.17
70407;BME280;57821;52.202;0.154;2023-12-20T13:24:02;101491.63;;;10.55;90.54
70407;BME280;57821;52.202;0.154;2023-12-20T13:26:33;101493.38;;;10.58;91.28